createdAt,value
2018-06-09T00:01:04.027Z,16.70
2018-06-09T00:03:32.134Z,16.80
2018-06-09T00:06:00.283Z,16.80
2018-06-09T00:08:28.402Z,16.80
2018-06-09T00:10:56.530Z,16.80
2018-06-09T00:13:24.637Z,16.80
2018-06-09T00:15:52.763Z,16.70
2018-06-09T00:18:20.882Z,16.70
2018-06-09T00:20:49.006Z,16.70
2018-06-09T00:23:17.127Z,16.70
2018-06-09T00:25:45.250Z,16.70
2018-06-09T00:28:13.406Z,16.60
2018-06-09T00:30:41.539Z,16.60
2018-06-09T00:33:09.671Z,16.60
2018-06-09T00:35:37.826Z,16.60
2018-06-09T00:38:05.939Z,16.60
2018-06-09T00:40:34.066Z,16.60
2018-06-09T00:43:02.190Z,16.40
2018-06-09T00:45:30.310Z,16.40
2018-06-09T00:47:58.471Z,16.30
2018-06-09T00:50:26.605Z,16.30
2018-06-09T00:52:54.714Z,16.30
2018-06-09T00:55:22.829Z,16.30
2018-06-09T00:57:50.960Z,16.30
2018-06-09T01:00:19.118Z,16.30
2018-06-09T01:02:47.251Z,16.30
2018-06-09T01:05:15.395Z,16.30
2018-06-09T01:07:43.541Z,16.20
2018-06-09T01:10:11.658Z,16.20
2018-06-09T01:12:39.795Z,16.20
2018-06-09T01:15:07.920Z,16.20
2018-06-09T01:17:36.059Z,16.20
2018-06-09T01:20:04.193Z,16.10
2018-06-09T01:22:32.322Z,16.10
2018-06-09T01:25:00.455Z,16.20
2018-06-09T01:27:28.583Z,16.10
2018-06-09T01:29:56.700Z,16.10
2018-06-09T01:32:24.817Z,16.10
2018-06-09T01:34:52.942Z,16.10
2018-06-09T01:37:21.075Z,16.10
2018-06-09T01:39:49.199Z,16.10
2018-06-09T01:42:17.337Z,16.00
2018-06-09T01:44:45.446Z,16.00
2018-06-09T01:47:13.574Z,16.00
2018-06-09T01:49:41.710Z,16.00
2018-06-09T01:52:09.856Z,16.00
2018-06-09T01:54:37.991Z,16.00
2018-06-09T01:57:06.126Z,16.00
2018-06-09T01:59:34.278Z,16.00
2018-06-09T02:02:02.395Z,15.90
2018-06-09T02:04:30.524Z,15.90
2018-06-09T02:06:58.646Z,15.90
2018-06-09T02:09:26.757Z,15.80
2018-06-09T02:11:54.896Z,15.80
2018-06-09T02:14:23.010Z,15.70
2018-06-09T02:16:51.189Z,15.70
2018-06-09T02:21:47.222Z,15.50
2018-06-09T02:24:15.339Z,15.60
2018-06-09T02:26:43.474Z,15.60
2018-06-09T02:29:11.638Z,15.50
2018-06-09T02:31:39.749Z,15.50
2018-06-09T02:34:07.858Z,15.60
2018-06-09T02:36:35.975Z,15.50
2018-06-09T02:39:06.754Z,15.50
2018-06-09T02:41:34.964Z,15.50
2018-06-09T02:44:03.088Z,15.50
2018-06-09T02:46:31.207Z,15.50
2018-06-09T02:48:59.349Z,15.50
2018-06-09T02:51:27.486Z,15.50
2018-06-09T02:53:56.353Z,15.50
2018-06-09T02:56:24.487Z,15.50
2018-06-09T02:58:52.619Z,15.40
2018-06-09T03:01:20.728Z,15.40
2018-06-09T03:03:48.850Z,15.30
2018-06-09T03:06:16.971Z,15.30
2018-06-09T03:08:45.096Z,15.30
2018-06-09T03:11:13.229Z,15.20
2018-06-09T03:13:41.343Z,15.20
2018-06-09T03:16:09.462Z,15.30
2018-06-09T03:18:37.592Z,15.40
2018-06-09T03:21:05.745Z,15.40
2018-06-09T03:23:33.895Z,15.30
2018-06-09T03:26:02.007Z,15.30
2018-06-09T03:28:30.144Z,15.40
2018-06-09T03:30:58.311Z,15.40
2018-06-09T03:33:26.373Z,15.50
2018-06-09T03:35:54.473Z,15.50
2018-06-09T03:38:22.600Z,15.50
2018-06-09T03:40:50.698Z,15.50
2018-06-09T03:43:18.850Z,15.40
2018-06-09T03:45:46.938Z,15.30
2018-06-09T03:48:15.081Z,15.40
2018-06-09T03:50:43.194Z,15.50
2018-06-09T03:53:11.318Z,15.60
2018-06-09T03:55:39.446Z,15.70
2018-06-09T03:58:07.575Z,15.80
2018-06-09T04:00:35.697Z,15.80
2018-06-09T04:03:03.835Z,15.80
2018-06-09T04:05:31.952Z,15.90
2018-06-09T04:08:00.059Z,16.10
2018-06-09T04:10:28.192Z,16.20
2018-06-09T04:12:56.335Z,16.40
2018-06-09T04:15:24.467Z,16.60
2018-06-09T04:17:52.599Z,16.70
2018-06-09T04:20:20.718Z,16.90
2018-06-09T04:22:48.842Z,17.20
2018-06-09T04:25:16.951Z,17.50
2018-06-09T04:27:45.071Z,17.50
2018-06-09T04:30:13.185Z,17.50
2018-06-09T04:32:41.313Z,17.40
2018-06-09T04:35:09.430Z,17.30
2018-06-09T04:37:37.563Z,17.10
2018-06-09T04:40:05.729Z,17.00
2018-06-09T04:42:33.835Z,16.90
2018-06-09T04:45:01.956Z,16.80
2018-06-09T04:47:30.066Z,16.70
2018-06-09T04:49:58.207Z,16.60
2018-06-09T04:52:26.322Z,16.50
2018-06-09T04:54:54.452Z,16.50
2018-06-09T04:57:22.577Z,16.50
2018-06-09T04:59:50.696Z,16.50
2018-06-09T05:02:18.821Z,16.50
2018-06-09T05:04:46.946Z,16.50
2018-06-09T05:07:15.089Z,16.50
2018-06-09T05:09:43.162Z,16.60
2018-06-09T05:12:11.258Z,16.60
2018-06-09T05:14:39.389Z,16.60
2018-06-09T05:17:07.508Z,16.60
2018-06-09T05:19:35.643Z,16.60
2018-06-09T05:22:03.778Z,16.70
2018-06-09T05:24:31.930Z,16.60
2018-06-09T05:27:00.048Z,16.70
2018-06-09T05:29:28.149Z,16.80
2018-06-09T05:31:57.082Z,16.80
2018-06-09T05:34:25.187Z,16.90
2018-06-09T05:36:53.315Z,17.00
2018-06-09T05:39:21.438Z,17.10
2018-06-09T05:41:49.572Z,17.10
2018-06-09T05:44:17.686Z,17.20
2018-06-09T05:46:45.810Z,17.20
2018-06-09T05:49:13.922Z,17.40
2018-06-09T05:51:42.059Z,17.50
2018-06-09T05:54:10.182Z,17.50
2018-06-09T05:56:38.301Z,17.60
2018-06-09T05:59:06.427Z,17.70
2018-06-09T06:01:34.575Z,17.90
2018-06-09T06:04:02.722Z,18.00
2018-06-09T06:06:30.805Z,18.10
2018-06-09T06:08:58.922Z,18.20
2018-06-09T06:11:27.046Z,18.30
2018-06-09T06:13:55.167Z,18.30
2018-06-09T06:16:23.288Z,18.40
2018-06-09T06:18:51.455Z,18.50
2018-06-09T06:21:19.539Z,18.50
2018-06-09T06:23:47.674Z,18.60
2018-06-09T06:26:15.836Z,18.60
2018-06-09T06:28:43.999Z,18.50
2018-06-09T06:31:12.102Z,18.50
2018-06-09T06:33:40.215Z,18.50
2018-06-09T06:36:08.321Z,18.60
2018-06-09T06:38:36.450Z,18.60
2018-06-09T06:41:04.561Z,18.60
2018-06-09T06:43:32.682Z,18.70
2018-06-09T06:46:00.801Z,18.80
2018-06-09T06:48:28.941Z,18.90
2018-06-09T06:50:57.059Z,19.00
2018-06-09T06:53:25.187Z,19.00
2018-06-09T06:55:53.295Z,19.00
2018-06-09T06:58:21.417Z,19.00
2018-06-09T07:00:49.546Z,19.00
2018-06-09T07:03:17.696Z,19.00
2018-06-09T07:05:45.816Z,19.00
2018-06-09T07:08:13.942Z,19.00
2018-06-09T07:10:42.046Z,18.90
2018-06-09T07:13:10.211Z,19.00
2018-06-09T07:15:38.361Z,19.00
2018-06-09T07:18:06.474Z,19.10
2018-06-09T07:20:34.607Z,19.20
2018-06-09T07:23:02.732Z,19.30
2018-06-09T07:25:30.888Z,19.50
2018-06-09T07:27:59.022Z,19.50
2018-06-09T07:30:27.166Z,19.60
2018-06-09T07:32:55.287Z,19.70
2018-06-09T07:35:23.422Z,19.80
2018-06-09T07:37:51.553Z,19.80
2018-06-09T07:40:19.674Z,19.80
2018-06-09T07:42:47.807Z,19.90
2018-06-09T07:45:15.934Z,20.00
2018-06-09T07:47:44.082Z,20.10
2018-06-09T07:50:12.198Z,20.10
2018-06-09T07:52:40.382Z,20.20
2018-06-09T07:55:08.528Z,20.40
2018-06-09T07:57:36.642Z,20.50
2018-06-09T08:00:04.785Z,20.60
2018-06-09T08:02:32.908Z,20.70
2018-06-09T08:05:01.023Z,20.80
2018-06-09T08:07:29.151Z,20.70
2018-06-09T08:09:57.270Z,20.80
2018-06-09T08:12:25.377Z,20.80
2018-06-09T08:14:53.513Z,20.90
2018-06-09T08:17:21.684Z,20.90
2018-06-09T08:19:49.801Z,21.00
2018-06-09T08:22:17.926Z,21.10
2018-06-09T08:24:46.042Z,21.20
2018-06-09T08:27:20.711Z,21.40
2018-06-09T08:29:48.823Z,21.50
2018-06-09T08:32:16.947Z,21.60
2018-06-09T08:34:45.068Z,21.70
2018-06-09T08:37:13.170Z,21.70
2018-06-09T08:39:41.298Z,21.60
2018-06-09T08:42:09.436Z,21.70
2018-06-09T08:44:37.578Z,21.80
2018-06-09T08:47:05.686Z,21.80
2018-06-09T08:49:33.804Z,21.90
2018-06-09T08:52:01.935Z,21.90
2018-06-09T08:54:30.063Z,22.00
2018-06-09T08:56:58.191Z,21.90
2018-06-09T08:59:26.303Z,21.90
2018-06-09T09:01:54.420Z,21.90
2018-06-09T09:04:22.555Z,22.10
2018-06-09T09:06:50.671Z,22.20
2018-06-09T09:09:18.823Z,22.30
2018-06-09T09:11:46.927Z,22.50
2018-06-09T09:14:15.102Z,22.70
2018-06-09T09:16:43.216Z,22.90
2018-06-09T09:19:11.350Z,23.00
2018-06-09T09:21:39.454Z,23.10
2018-06-09T09:24:07.598Z,23.00
2018-06-09T09:26:35.709Z,22.90
2018-06-09T09:29:03.842Z,23.00
2018-06-09T09:31:32.004Z,23.00
2018-06-09T09:34:00.122Z,23.10
2018-06-09T09:36:28.247Z,23.30
2018-06-09T09:38:56.374Z,23.30
2018-06-09T09:41:24.493Z,23.50
2018-06-09T09:43:52.606Z,23.60
2018-06-09T09:46:20.786Z,23.70
2018-06-09T09:48:48.871Z,23.70
2018-06-09T09:51:16.985Z,23.60
2018-06-09T09:53:45.099Z,23.50
2018-06-09T09:56:13.258Z,23.70
2018-06-09T09:58:41.390Z,23.70
2018-06-09T10:01:09.530Z,23.60
2018-06-09T10:03:37.707Z,23.60
2018-06-09T10:06:05.854Z,23.50
2018-06-09T10:08:33.974Z,23.60
2018-06-09T10:11:02.111Z,23.80
2018-06-09T10:13:30.240Z,23.90
2018-06-09T10:15:58.366Z,23.90
2018-06-09T10:18:26.511Z,23.80
2018-06-09T10:20:54.631Z,23.80
2018-06-09T10:23:22.746Z,23.80
2018-06-09T10:25:50.874Z,23.80
2018-06-09T10:28:18.995Z,24.00
2018-06-09T10:30:47.097Z,24.00
2018-06-09T10:33:15.219Z,24.20
2018-06-09T10:35:43.357Z,24.40
2018-06-09T10:38:11.483Z,24.50
2018-06-09T10:40:39.613Z,24.70
2018-06-09T10:43:07.726Z,24.90
2018-06-09T10:45:35.863Z,25.20
2018-06-09T10:48:03.974Z,25.50
2018-06-09T10:50:32.086Z,25.60
2018-06-09T10:53:00.231Z,25.70
2018-06-09T10:55:28.345Z,25.80
2018-06-09T10:57:56.465Z,25.90
2018-06-09T11:00:24.581Z,25.90
2018-06-09T11:02:52.686Z,26.00
2018-06-09T11:07:48.739Z,25.90
2018-06-09T11:10:16.870Z,26.10
2018-06-09T11:12:44.978Z,26.40
2018-06-09T11:15:13.131Z,26.60
2018-06-09T11:17:41.273Z,26.80
2018-06-09T11:20:09.402Z,26.90
2018-06-09T11:22:39.575Z,26.90
2018-06-09T11:25:07.699Z,26.70
2018-06-09T11:27:35.837Z,26.50
2018-06-09T11:30:04.012Z,26.50
2018-06-09T11:32:32.146Z,26.40
2018-06-09T11:35:00.258Z,26.20
2018-06-09T11:37:28.383Z,26.20
2018-06-09T11:39:56.481Z,26.20
2018-06-09T11:44:31.414Z,26.30
2018-06-09T11:46:59.539Z,26.40
2018-06-09T11:49:27.680Z,26.30
2018-06-09T11:51:55.823Z,26.40
2018-06-09T11:54:23.955Z,26.50
2018-06-09T11:56:52.087Z,26.60
2018-06-09T11:59:20.201Z,26.90
2018-06-09T12:01:48.408Z,27.00
2018-06-09T12:04:16.491Z,26.90
2018-06-09T12:06:44.651Z,26.90
2018-06-09T12:09:12.762Z,27.00
2018-06-09T12:11:40.911Z,26.90
2018-06-09T12:14:09.018Z,26.90
2018-06-09T12:16:37.170Z,26.90
2018-06-09T12:19:05.347Z,26.80
2018-06-09T12:21:33.460Z,26.90
2018-06-09T12:24:01.598Z,26.90
2018-06-09T12:26:29.715Z,26.90
2018-06-09T12:28:57.822Z,26.80
2018-06-09T12:31:25.951Z,26.90
2018-06-09T12:33:54.068Z,26.80
2018-06-09T12:36:22.190Z,26.70
2018-06-09T12:38:50.559Z,26.80
2018-06-09T12:41:18.688Z,26.80
2018-06-09T12:43:46.816Z,26.80
2018-06-09T12:46:14.937Z,26.80
2018-06-09T12:48:43.068Z,26.90
2018-06-09T12:51:11.170Z,27.00
2018-06-09T12:53:39.286Z,27.00
2018-06-09T12:56:07.458Z,26.90
2018-06-09T12:58:35.592Z,26.10
2018-06-09T13:01:03.754Z,25.50
2018-06-09T13:03:31.869Z,25.10
2018-06-09T13:05:59.990Z,24.60
2018-06-09T13:08:28.593Z,24.00
2018-06-09T13:10:56.768Z,23.40
2018-06-09T13:13:24.956Z,22.90
2018-06-09T13:15:53.089Z,22.70
2018-06-09T13:18:21.229Z,22.40
2018-06-09T13:20:49.360Z,22.10
2018-06-09T13:23:17.523Z,21.60
2018-06-09T13:25:45.675Z,21.30
2018-06-09T13:28:13.842Z,21.10
2018-06-09T13:30:42.007Z,21.10
2018-06-09T13:33:10.154Z,20.80
2018-06-09T13:35:38.303Z,20.60
2018-06-09T13:38:06.467Z,20.50
2018-06-09T13:40:34.606Z,20.40
2018-06-09T13:43:02.783Z,20.40
2018-06-09T13:45:30.927Z,20.40
2018-06-09T13:47:59.071Z,20.50
2018-06-09T13:50:27.247Z,20.50
2018-06-09T13:52:55.386Z,20.50
2018-06-09T13:55:23.544Z,20.50
2018-06-09T13:57:51.703Z,20.60
2018-06-09T14:00:19.838Z,20.50
2018-06-09T14:02:47.965Z,20.40
2018-06-09T14:05:16.116Z,20.30
2018-06-09T14:07:44.242Z,20.20
2018-06-09T14:10:12.368Z,20.20
2018-06-09T14:12:40.538Z,20.20
2018-06-09T14:15:08.662Z,20.20
2018-06-09T14:17:36.825Z,20.30
2018-06-09T14:20:04.926Z,20.30
2018-06-09T14:22:33.075Z,20.30
2018-06-09T14:25:01.204Z,20.30
2018-06-09T14:27:29.355Z,20.20
2018-06-09T14:29:57.481Z,20.20
2018-06-09T14:32:25.642Z,20.30
2018-06-09T14:34:53.781Z,20.30
2018-06-09T14:37:21.918Z,20.40
2018-06-09T14:39:50.065Z,20.30
2018-06-09T14:42:18.210Z,20.20
2018-06-09T14:44:46.347Z,20.20
2018-06-09T14:47:14.475Z,20.10
2018-06-09T14:49:42.638Z,20.20
2018-06-09T14:52:10.746Z,20.30
2018-06-09T14:54:38.881Z,20.40
2018-06-09T14:57:06.999Z,20.50
2018-06-09T14:59:35.154Z,20.50
2018-06-09T15:02:03.302Z,20.60
2018-06-09T15:04:31.466Z,20.60
2018-06-09T15:06:59.590Z,20.70
2018-06-09T15:09:27.742Z,20.80
2018-06-09T15:11:55.861Z,20.80
2018-06-09T15:14:24.010Z,20.80
2018-06-09T15:16:52.126Z,20.70
2018-06-09T15:19:20.259Z,20.70
2018-06-09T15:21:48.381Z,20.70
2018-06-09T15:24:16.510Z,20.80
2018-06-09T15:26:44.642Z,20.80
2018-06-09T15:29:12.754Z,20.70
2018-06-09T15:31:40.875Z,20.70
2018-06-09T15:34:09.020Z,20.80
2018-06-09T15:36:37.142Z,20.90
2018-06-09T15:39:07.462Z,20.90
2018-06-09T15:41:35.590Z,21.10
2018-06-09T15:44:03.711Z,21.20
2018-06-09T15:46:31.866Z,21.20
2018-06-09T15:48:59.963Z,21.20
2018-06-09T15:51:28.097Z,21.20
2018-06-09T15:53:56.207Z,21.20
2018-06-09T15:56:24.338Z,21.20
2018-06-09T15:58:52.454Z,21.20
2018-06-09T16:01:20.608Z,21.20
2018-06-09T16:03:48.730Z,21.20
2018-06-09T16:06:16.874Z,21.20
2018-06-09T16:08:45.024Z,21.20
2018-06-09T16:11:13.167Z,21.20
2018-06-09T16:13:41.290Z,21.20
2018-06-09T16:16:09.415Z,21.20
2018-06-09T16:18:37.534Z,21.20
2018-06-09T16:21:05.657Z,21.20
2018-06-09T16:23:33.767Z,21.20
2018-06-09T16:26:01.902Z,21.20
2018-06-09T16:28:30.030Z,21.20
2018-06-09T16:30:58.139Z,21.30
2018-06-09T16:33:26.253Z,21.30
2018-06-09T16:35:54.397Z,21.20
2018-06-09T16:38:22.522Z,21.30
2018-06-09T16:40:50.647Z,21.30
2018-06-09T16:43:18.774Z,21.30
2018-06-09T16:45:46.918Z,21.40
2018-06-09T16:48:15.018Z,21.50
2018-06-09T16:50:43.126Z,21.40
2018-06-09T16:53:11.244Z,21.40
2018-06-09T16:55:39.378Z,21.40
2018-06-09T16:58:07.490Z,21.30
2018-06-09T17:00:35.622Z,21.30
2018-06-09T17:03:03.743Z,21.30
2018-06-09T17:05:31.859Z,21.30
2018-06-09T17:07:59.999Z,21.30
2018-06-09T17:10:28.094Z,21.30
2018-06-09T17:12:56.251Z,21.20
2018-06-09T17:15:24.358Z,21.10
2018-06-09T17:17:52.477Z,21.00
2018-06-09T17:20:20.604Z,21.10
2018-06-09T17:22:48.737Z,21.10
2018-06-09T17:25:16.850Z,21.20
2018-06-09T17:27:45.007Z,21.20
2018-06-09T17:30:13.137Z,21.20
2018-06-09T17:32:41.274Z,21.20
2018-06-09T17:35:09.389Z,21.20
2018-06-09T17:37:37.523Z,21.20
2018-06-09T17:40:05.657Z,21.20
2018-06-09T17:42:33.927Z,21.20
2018-06-09T17:45:02.048Z,21.20
2018-06-09T17:47:30.157Z,21.30
2018-06-09T17:49:58.272Z,21.20
2018-06-09T17:52:26.452Z,21.20
2018-06-09T17:54:54.550Z,21.20
2018-06-09T17:57:22.749Z,21.20
2018-06-09T17:59:50.832Z,21.10
2018-06-09T18:02:18.970Z,21.00
2018-06-09T18:04:47.090Z,20.90
2018-06-09T18:07:15.218Z,20.90
2018-06-09T18:09:43.358Z,20.90
2018-06-09T18:12:11.514Z,20.90
2018-06-09T18:14:39.596Z,21.00
2018-06-09T18:17:07.715Z,21.00
2018-06-09T18:19:35.913Z,21.00
2018-06-09T18:22:03.959Z,21.10
2018-06-09T18:24:32.094Z,21.10
2018-06-09T18:27:00.224Z,21.10
2018-06-09T18:29:28.347Z,21.10
2018-06-09T18:31:56.465Z,21.10
2018-06-09T18:34:24.587Z,21.10
2018-06-09T18:36:52.701Z,21.00
2018-06-09T18:39:20.831Z,20.90
2018-06-09T18:41:48.946Z,20.90
2018-06-09T18:44:17.069Z,20.80
2018-06-09T18:46:45.204Z,20.80
2018-06-09T18:49:13.333Z,20.70
2018-06-09T18:51:41.455Z,20.60
2018-06-09T18:54:09.576Z,20.50
2018-06-09T18:56:37.692Z,20.40
2018-06-09T18:59:05.815Z,20.40
2018-06-09T19:01:33.931Z,20.30
2018-06-09T19:04:02.080Z,20.20
2018-06-09T19:06:30.163Z,20.10
2018-06-09T19:08:58.292Z,20.10
2018-06-09T19:11:26.408Z,20.00
2018-06-09T19:13:54.537Z,20.00
2018-06-09T19:16:22.671Z,19.90
2018-06-09T19:18:50.789Z,19.80
2018-06-09T19:21:18.906Z,19.70
2018-06-09T19:23:47.025Z,19.70
2018-06-09T19:26:15.146Z,19.60
2018-06-09T19:28:43.292Z,19.60
2018-06-09T19:31:11.406Z,19.40
2018-06-09T19:33:39.526Z,19.40
2018-06-09T19:36:07.633Z,19.40
2018-06-09T19:38:35.977Z,19.30
2018-06-09T19:41:04.512Z,19.30
2018-06-09T19:43:32.874Z,19.20
2018-06-09T19:46:01.048Z,19.10
2018-06-09T19:48:30.341Z,19.00
2018-06-09T19:51:00.301Z,18.80
2018-06-09T19:53:28.387Z,18.80
2018-06-09T19:55:58.039Z,18.80
2018-06-09T19:58:27.212Z,18.80
2018-06-09T20:00:55.572Z,18.70
2018-06-09T20:03:23.730Z,18.60
2018-06-09T20:05:51.806Z,18.50
2018-06-09T20:08:21.144Z,18.50
2018-06-09T20:10:50.114Z,18.50
2018-06-09T20:13:19.046Z,18.50
2018-06-09T20:15:47.230Z,18.50
2018-06-09T20:18:15.616Z,18.60
2018-06-09T20:20:44.659Z,18.50
2018-06-09T20:23:13.406Z,18.50
2018-06-09T20:25:42.239Z,18.40
2018-06-09T20:28:11.136Z,18.50
2018-06-09T20:30:39.394Z,18.40
2018-06-09T20:33:08.101Z,18.30
2018-06-09T20:35:36.888Z,18.30
2018-06-09T20:38:05.592Z,18.30
2018-06-09T20:40:34.955Z,18.40
2018-06-09T20:43:03.073Z,18.40
2018-06-09T20:45:32.356Z,18.40
2018-06-09T20:48:01.698Z,18.30
2018-06-09T20:50:31.690Z,18.20
2018-06-09T20:53:00.565Z,18.30
2018-06-09T20:55:28.711Z,18.30
2018-06-09T20:57:56.826Z,18.30
2018-06-09T21:00:24.958Z,18.30
2018-06-09T21:05:21.009Z,18.10
2018-06-09T21:07:49.115Z,18.20
2018-06-09T21:10:17.291Z,18.20
2018-06-09T21:12:45.409Z,18.20
2018-06-09T21:15:13.530Z,18.30
2018-06-09T21:17:41.659Z,18.30
2018-06-09T21:20:09.794Z,18.30
2018-06-09T21:22:37.917Z,18.30
2018-06-09T21:25:06.127Z,18.30
2018-06-09T21:27:39.485Z,18.30
2018-06-09T21:30:12.971Z,18.30
2018-06-09T21:32:43.992Z,18.30
2018-06-09T21:35:28.979Z,18.40
2018-06-09T21:38:02.609Z,18.30
2018-06-09T21:40:36.121Z,18.40
2018-06-09T21:43:09.674Z,18.30
2018-06-09T21:45:43.158Z,18.30
2018-06-09T21:48:11.294Z,18.30
2018-06-09T21:50:39.434Z,18.30
2018-06-09T21:53:07.574Z,18.30
2018-06-09T21:55:35.685Z,18.20
2018-06-09T21:58:03.810Z,18.20
2018-06-09T22:00:31.932Z,18.20
2018-06-09T22:03:00.061Z,18.20
2018-06-09T22:05:28.181Z,18.20
2018-06-09T22:10:24.214Z,18.10
2018-06-09T22:12:52.326Z,18.10
2018-06-09T22:15:20.426Z,18.20
2018-06-09T22:17:48.639Z,18.10
2018-06-09T22:20:16.773Z,18.10
2018-06-09T22:22:45.506Z,18.10
2018-06-09T22:25:17.842Z,18.10
2018-06-09T22:27:45.987Z,18.00
2018-06-09T22:30:14.102Z,18.00
2018-06-09T22:32:42.214Z,18.00
2018-06-09T22:35:10.318Z,16.60
2018-06-09T22:37:38.431Z,18.00
2018-06-09T22:40:06.563Z,18.00
2018-06-09T22:42:34.724Z,18.00
2018-06-09T22:45:02.818Z,18.00
2018-06-09T22:47:30.938Z,18.00
2018-06-09T22:50:03.638Z,17.90
2018-06-09T22:52:31.729Z,17.90
2018-06-09T22:54:59.855Z,17.90
2018-06-09T22:57:27.978Z,18.00
2018-06-09T22:59:56.096Z,18.00
2018-06-09T23:02:24.232Z,18.00
2018-06-09T23:04:52.327Z,18.00
2018-06-09T23:07:20.467Z,18.00
2018-06-09T23:09:48.616Z,18.00
2018-06-09T23:12:16.739Z,18.00
2018-06-09T23:14:44.866Z,18.00
2018-06-09T23:17:12.983Z,18.00
2018-06-09T23:19:41.118Z,18.00
2018-06-09T23:22:09.223Z,18.00
2018-06-09T23:24:37.391Z,17.90
2018-06-09T23:27:05.510Z,17.90
2018-06-09T23:29:33.634Z,18.00
2018-06-09T23:32:01.759Z,18.00
2018-06-09T23:34:29.903Z,18.00
2018-06-09T23:36:58.030Z,17.90
2018-06-09T23:40:14.183Z,17.90
2018-06-09T23:42:42.596Z,17.80
2018-06-09T23:45:10.710Z,17.80
2018-06-09T23:49:47.442Z,17.80
2018-06-09T23:52:15.566Z,17.70
2018-06-09T23:54:43.706Z,17.40
2018-06-09T23:57:11.821Z,17.30
2018-06-09T23:59:39.963Z,17.30
